createdAt,value
2022-12-04T00:00:02.725Z,974.85
2022-12-04T00:05:33.636Z,974.96
2022-12-04T00:11:12.132Z,975.03
2022-12-04T00:16:44.168Z,974.52
2022-12-04T00:22:15.308Z,974.7
2022-12-04T00:27:47.124Z,974.77
2022-12-04T00:33:18.909Z,974.73
2022-12-04T00:38:50.697Z,974.57
2022-12-04T00:44:22.444Z,974.68
2022-12-04T00:49:55.665Z,975.04
2022-12-04T00:55:28.053Z,974.42
2022-12-04T01:00:57.643Z,974.09
2022-12-04T01:06:29.305Z,974.68
2022-12-04T01:12:05.594Z,974.96
2022-12-04T01:17:37.178Z,975.21
2022-12-04T01:23:08.708Z,974.95
2022-12-04T01:28:40.418Z,975.62
2022-12-04T01:34:12.301Z,975.24
2022-12-04T01:39:43.928Z,974.78
2022-12-04T01:45:15.701Z,975.09
2022-12-04T01:50:47.205Z,974.77
2022-12-04T01:56:19.038Z,974.82
2022-12-04T02:01:51.289Z,974.54
2022-12-04T02:07:22.388Z,974.79
2022-12-04T02:13:00.469Z,974.96
2022-12-04T02:18:32.237Z,974.82
2022-12-04T02:24:04.134Z,975.08
2022-12-04T02:29:35.612Z,974.65
2022-12-04T02:35:07.501Z,974.68
2022-12-04T02:40:38.981Z,974.61
2022-12-04T02:46:11.006Z,975.19
2022-12-04T02:51:42.617Z,974.66
2022-12-04T02:57:14.507Z,974.87
2022-12-04T03:02:46.251Z,974.94
2022-12-04T03:08:18.162Z,974.54
2022-12-04T03:13:53.780Z,974.71
2022-12-04T03:19:25.648Z,974.69
2022-12-04T03:24:57.368Z,974.95
2022-12-04T03:30:29.026Z,975.22
2022-12-04T03:36:00.776Z,974.98
2022-12-04T03:41:32.696Z,974.25
2022-12-04T03:47:04.083Z,974.31
2022-12-04T03:52:35.859Z,974.38
2022-12-04T03:58:07.752Z,974.8
2022-12-04T04:03:39.318Z,974.69
2022-12-04T04:09:10.845Z,974.22
2022-12-04T04:14:49.164Z,975.16
2022-12-04T04:20:20.791Z,975.22
2022-12-04T04:25:52.564Z,975.63
2022-12-04T04:31:24.725Z,975.37
2022-12-04T04:36:56.158Z,975.27
2022-12-04T04:42:27.747Z,975.48
2022-12-04T04:47:59.625Z,975.68
2022-12-04T04:53:31.682Z,974.71
2022-12-04T04:59:02.877Z,975.38
2022-12-04T05:04:34.665Z,974.89
2022-12-04T05:10:06.221Z,974.88
2022-12-04T05:15:42.778Z,974.51
2022-12-04T05:21:14.336Z,974.69
2022-12-04T05:26:45.864Z,974.64
2022-12-04T05:32:17.777Z,974.45
2022-12-04T05:37:49.297Z,973.84
2022-12-04T05:43:21.063Z,973.59
2022-12-04T05:48:52.912Z,974.41
2022-12-04T05:54:24.629Z,973.58
2022-12-04T05:59:56.948Z,974.05
2022-12-04T06:05:28.088Z,974.09
2022-12-04T06:10:59.732Z,974.03
2022-12-04T06:16:38.246Z,974.43
2022-12-04T06:22:09.672Z,974.68
2022-12-04T06:27:41.560Z,974.5
2022-12-04T06:33:12.878Z,974.51
2022-12-04T06:38:44.579Z,975.26
2022-12-04T06:44:16.465Z,974.89
2022-12-04T06:49:48.364Z,974.69
2022-12-04T06:55:19.980Z,973.82
2022-12-04T07:00:51.738Z,974.69
2022-12-04T07:06:23.207Z,974.85
2022-12-04T07:11:55.146Z,974.96
2022-12-04T07:17:31.061Z,975.53
2022-12-04T07:23:08.012Z,975.22
2022-12-04T07:28:34.426Z,975.56
2022-12-04T07:34:06.434Z,975.39
2022-12-04T07:39:38.114Z,975.32
2022-12-04T07:45:09.699Z,974.74
2022-12-04T07:50:41.668Z,974.32
2022-12-04T07:56:13.247Z,975.19
2022-12-04T08:01:45.712Z,975.08
2022-12-04T08:07:16.615Z,974.82
2022-12-04T08:12:48.458Z,974.65
2022-12-04T08:18:26.410Z,974.6
2022-12-04T08:23:58.377Z,974.73
2022-12-04T08:29:29.889Z,974.94
2022-12-04T08:35:01.778Z,974.84
2022-12-04T08:40:33.406Z,975.43
2022-12-04T08:46:05.335Z,975.32
2022-12-04T08:51:36.921Z,975.44
2022-12-04T08:57:08.496Z,975.41
2022-12-04T09:02:40.286Z,975.53
2022-12-04T09:08:12.172Z,975.9
2022-12-04T09:13:43.629Z,975.73
2022-12-04T09:19:21.759Z,975.97
2022-12-04T09:24:53.516Z,975.22
2022-12-04T09:30:25.249Z,975.54
2022-12-04T09:35:56.892Z,975.59
2022-12-04T09:41:28.645Z,975.09
2022-12-04T09:47:00.613Z,974.92
2022-12-04T09:52:32.212Z,975.53
2022-12-04T09:58:04.147Z,974.78
2022-12-04T10:03:35.744Z,974.4
2022-12-04T10:09:07.340Z,975.13
2022-12-04T10:14:39.087Z,974.68
2022-12-04T10:20:15.326Z,974.17
2022-12-04T10:25:47.110Z,974.63
2022-12-04T10:31:18.960Z,974.7
2022-12-04T10:36:50.573Z,974.61
2022-12-04T10:42:22.281Z,974.41
2022-12-04T10:47:53.989Z,974.96
2022-12-04T10:53:25.803Z,974.43
2022-12-04T10:58:57.544Z,974.97
2022-12-04T11:04:29.153Z,975.07
2022-12-04T11:10:01.409Z,975.06
2022-12-04T11:15:32.568Z,974.99
2022-12-04T11:21:08.751Z,974.37
2022-12-04T11:26:40.403Z,974.86
2022-12-04T11:32:12.239Z,975.13
2022-12-04T11:37:46.189Z,975.11
2022-12-04T11:43:15.680Z,974.75
2022-12-04T11:48:47.660Z,975.05
2022-12-04T11:54:19.151Z,974.77
2022-12-04T11:59:50.748Z,974.93
2022-12-04T12:05:22.591Z,974.9
2022-12-04T12:10:54.336Z,975.04
2022-12-04T12:16:25.985Z,973.32
2022-12-04T12:22:07.344Z,974.81
2022-12-04T12:27:34.351Z,973.43
2022-12-04T12:33:05.517Z,974.93
2022-12-04T12:38:37.448Z,974.68
2022-12-04T12:44:09.168Z,974.39
2022-12-04T12:49:40.925Z,974.25
2022-12-04T12:55:17.636Z,974.52
2022-12-04T13:00:44.484Z,974.77
2022-12-04T13:06:16.121Z,973.74
2022-12-04T13:11:47.857Z,974.09
2022-12-04T13:17:19.560Z,974.05
2022-12-04T13:22:57.980Z,974.0
2022-12-04T13:28:30.916Z,974.26
2022-12-04T13:34:01.411Z,974.67
2022-12-04T13:39:32.687Z,975.57
2022-12-04T13:45:04.471Z,975.46
2022-12-04T13:50:36.444Z,975.18
2022-12-04T13:56:16.000Z,974.88
2022-12-04T14:01:39.812Z,974.74
2022-12-04T14:07:11.469Z,975.03
2022-12-04T14:12:43.053Z,974.57
2022-12-04T14:18:14.760Z,973.4
2022-12-04T14:23:50.848Z,973.35
2022-12-04T14:29:22.645Z,973.42
2022-12-04T14:34:55.226Z,973.66
2022-12-04T14:40:26.037Z,974.19
2022-12-04T14:45:57.911Z,974.67
2022-12-04T14:51:29.670Z,974.66
2022-12-04T14:57:01.850Z,975.06
2022-12-04T15:02:34.196Z,975.2
2022-12-04T15:08:05.835Z,975.1
2022-12-04T15:13:37.530Z,974.55
2022-12-04T15:19:09.244Z,974.65
2022-12-04T15:24:45.205Z,975.09
2022-12-04T15:30:17.188Z,975.28
2022-12-04T15:35:48.729Z,975.44
2022-12-04T15:41:23.620Z,975.3
2022-12-04T15:46:52.642Z,975.3
2022-12-04T15:52:23.888Z,974.26
2022-12-04T15:57:55.842Z,974.59
2022-12-04T16:03:27.723Z,974.41
2022-12-04T16:08:59.160Z,973.82
2022-12-04T16:14:31.206Z,974.96
2022-12-04T16:20:02.556Z,973.92
2022-12-04T16:25:38.774Z,973.98
2022-12-04T16:31:10.525Z,974.31
2022-12-04T16:36:42.453Z,974.14
2022-12-04T16:42:13.793Z,973.84
2022-12-04T16:47:45.588Z,974.28
2022-12-04T16:53:17.296Z,974.72
2022-12-04T16:58:49.047Z,974.28
2022-12-04T17:04:20.913Z,974.03
2022-12-04T17:09:52.482Z,973.17
2022-12-04T17:15:24.258Z,973.85
2022-12-04T17:20:55.925Z,973.99
2022-12-04T17:26:33.946Z,974.19
2022-12-04T17:32:05.792Z,973.89
2022-12-04T17:37:37.440Z,974.61
2022-12-04T17:43:09.043Z,975.05
2022-12-04T17:48:41.123Z,975.05
2022-12-04T17:54:12.588Z,975.12
2022-12-04T17:59:44.460Z,975.33
2022-12-04T18:05:16.321Z,975.25
2022-12-04T18:10:47.868Z,975.07
2022-12-04T18:16:19.683Z,974.92
2022-12-04T18:21:51.229Z,974.79
2022-12-04T18:27:30.104Z,974.34
2022-12-04T18:33:01.336Z,975.0
2022-12-04T18:38:33.164Z,974.99
2022-12-04T18:44:04.640Z,975.06
2022-12-04T18:49:36.472Z,974.16
2022-12-04T18:55:08.228Z,974.44
2022-12-04T19:00:39.989Z,974.55
2022-12-04T19:06:12.327Z,974.72
2022-12-04T19:11:43.123Z,974.89
2022-12-04T19:17:14.916Z,974.93
2022-12-04T19:22:46.970Z,975.37
2022-12-04T19:28:22.678Z,975.16
2022-12-04T19:33:54.572Z,975.36
2022-12-04T19:39:26.385Z,975.51
2022-12-04T19:44:57.878Z,975.52
2022-12-04T19:50:29.779Z,975.23
2022-12-04T19:56:01.759Z,975.42
2022-12-04T20:01:33.660Z,975.58
2022-12-04T20:07:04.861Z,975.55
2022-12-04T20:12:36.614Z,976.15
2022-12-04T20:18:08.544Z,976.31
2022-12-04T20:23:40.119Z,976.0
2022-12-04T20:29:20.259Z,976.37
2022-12-04T20:34:52.084Z,976.03
2022-12-04T20:40:24.045Z,975.87
2022-12-04T20:45:55.831Z,976.14
2022-12-04T20:51:27.439Z,976.35
2022-12-04T20:56:59.544Z,976.17
2022-12-04T21:02:31.124Z,976.58
2022-12-04T21:08:02.657Z,976.07
2022-12-04T21:13:34.128Z,976.14
2022-12-04T21:19:05.917Z,976.13
2022-12-04T21:24:37.816Z,976.69
2022-12-04T21:30:13.908Z,977.0
2022-12-04T21:35:45.592Z,976.67
2022-12-04T21:41:17.317Z,977.11
2022-12-04T21:46:49.086Z,977.05
2022-12-04T21:52:20.860Z,977.29
2022-12-04T21:57:52.472Z,976.56
2022-12-04T22:03:24.080Z,977.21
2022-12-04T22:08:55.702Z,977.15
2022-12-04T22:14:27.592Z,977.43
2022-12-04T22:20:00.142Z,977.45
2022-12-04T22:25:31.101Z,977.42
2022-12-04T22:31:09.426Z,977.53
2022-12-04T22:36:40.768Z,977.19
2022-12-04T22:42:12.950Z,977.35
2022-12-04T22:47:44.236Z,977.71
2022-12-04T22:53:15.966Z,977.62
2022-12-04T22:58:47.715Z,977.67
2022-12-04T23:04:19.528Z,977.56
2022-12-04T23:09:51.214Z,977.71
2022-12-04T23:15:22.872Z,977.71
2022-12-04T23:20:54.640Z,977.58
2022-12-04T23:26:26.350Z,977.7
2022-12-04T23:32:02.783Z,977.34
2022-12-04T23:37:34.292Z,977.23
2022-12-04T23:43:06.196Z,976.66
2022-12-04T23:48:37.706Z,976.65
2022-12-04T23:54:09.376Z,976.23
2022-12-04T23:59:41.222Z,976.89
